Tiempo atmosférico en la estación meteorológica de Palencia, Palencia (736 m.)



Fecha
DESCASC
Temp. máxima en grados centígrados (hora)
DESCASC
Temp. mínima en grados centígrados (hora)
DESCASC
Temp. media en grados centígrados
DESCASC
Racha de viento máxima en m/sg (hora)
DESCASC
Velocidad máxima media en intervalos de 10 minutos(hora)
DESCASC
Precipitaciones diarias en mm
DESCASC
Precipitaciones de 00:00 a 06:00 en mm
DESCASC
Precipitaciones de 06:00 a 12:00 en mm
DESCASC
Precipitaciones de 12:00 a 18:00 en mm
DESCASC
Precipitaciones de 18:00 a 24:00 en mm
DESCASC
22-01-2020 10 (16:10) 0.4 (23:50) 5.2 10.83 (01:00) 5.56 (01:00) 0 0 0 0 0
21-01-2020 4.4 (15:30) 1 (00:00) 2.7 14.72 (16:10) 6.67 (00:20) 0.2 0 0 0.2 0
20-01-2020 3 (15:10) 0 (06:40) 1.5 18.61 (11:10) 9.44 (11:50) 0 0 0 0 0
19-01-2020 6.7 (13:50) 0.4 (00:00) 3.5 15.28 (15:10) 6.67 (19:20) 0 0 0 0 0
18-01-2020 11.4 (16:30) 1.5 (00:00) 6.4 14.72 (18:10) 8.61 (18:10) 1 0 0 0 1
17-01-2020 10 (14:20) 2.1 (00:00) 6 11.39 (11:50) 7.78 (12:20) 0 0 0 0 0
16-01-2020 13.4 (14:00) 6.1 (00:00) 9.7 13.33 (16:10) 7.78 (16:10) 0.4 0 0 0 0.4
15-01-2020 11.3 (15:00) 5.6 (00:00) 8.5 10.83 (11:00) 6.11 (11:10) 0 0 0 0 0
14-01-2020 8.9 (14:40) -1.2 (-00:0) 3.8 9.17 (10:40) 4.72 (10:20) 0 0 0 0 0
13-01-2020 1.9 (16:00) -2.9 (-00:0) -0.5 4.72 (10:40) 2.22 (10:50) 0 0 0 0 0
12-01-2020 1 (17:10) -4.5 (09:00) -1.8 4.17 (16:10) 2.5 (16:40) 0 0 0 0 0
11-01-2020 5.3 (13:30) -4 (-00:0) 0.7 5.28 (14:40) 3.61 (15:10) 0 0 0 0 0
10-01-2020 8.4 (15:10) -2.7 (-00:0) 2.8 9.72 (00:10) 5.83 (00:20) 0 0 0 0 0
09-01-2020 9.7 (17:50) -1.1 (-00:0) 4.3 12.78 (23:20) 8.06 (23:20) 0 0 0 0 0
08-01-2020 8.2 (16:00) -2.6 (-00:0) 2.8 3.89 (17:00) 2.5 (16:50) 0 0 0 0 0
07-01-2020 1.3 (16:10) -2.4 (-00:0) -0.6 3.33 (09:40) 1.94 (09:10) 0 0 0 0 0
06-01-2020 0.3 (17:10) -2.8 (-00:0) -1.2 3.61 (19:00) 1.94 (12:00) 0 0 0 0 0
05-01-2020 5.9 (15:40) -1.7 (-00:0) 2.1 3.61 (15:40) 2.5 (15:40) 0 0 0 0 0
04-01-2020 8 (16:50) 0.4 (00:00) 4.2 6.11 (17:10) 3.33 (17:10) 0 0 0 0 0
03-01-2020 5.3 (16:10) -2.6 (-00:0) 1.4 3.06 (00:30) 1.94 (17:10) 0 0 0 0 0
02-01-2020 1.3 (16:30) -3.7 (-00:0) -1.2 4.17 (22:10) 2.22 (23:00) 0 0 0 0 0
01-01-2020 1.7 (17:10) -2.7 (-00:0) -0.5 3.61 (15:00) 2.22 (15:00) 0 0 0 0 0
31-12-2019 2.6 (16:20) -2.2 (-00:0) 0.2 2.78 (12:50) 2.22 (08:00) 0 0 0 0 0
30-12-2019 -- (--) -- (--) -- -- (--) -- (--) -- 0 0 0 --
29-12-2019 10 (15:50) -2.9 (-00:0) 3.5 2.78 (16:10) 1.67 (06:50) 0 0 0 0 0
28-12-2019 7.5 (15:50) -2.4 (-00:0) 2.5 4.17 (10:00) 2.22 (10:10) 0 0 0 0 0
27-12-2019 4.9 (16:10) -1.3 (-00:0) 1.8 3.89 (17:40) 3.06 (17:40) 0 0 0 0 0
26-12-2019 10.4 (14:20) 0.2 (00:00) 5.3 5 (08:20) 3.06 (08:20) 0 0 0 0 0
25-12-2019 11.8 (15:50) 4.1 (00:00) 8 3.89 (15:00) 2.22 (14:50) 0 0 0 0 0
24-12-2019 12.6 (15:30) 5.6 (00:00) 9.1 3.61 (10:30) 2.22 (09:10) 0 0 0 0 0

Gráficas

Temp. máximas Temp. mínimas Temp. medias Precipitaciones Rachas de viento máximas Velocidades máximas media en intervalos de 10 minutos

Datos horarios

Fecha y hora oficial Temperatura (ºC) Velocidad del viento (km/h) Dirección del viento Racha (km/h) Dirección de racha Precipitación (mm) Presión (hPa) Tendencia (hPa) Humedad (%)
2020-01-22 23:00:00 1.3 0 Calma 7 Noroeste 0 -- -- 89
2020-01-22 22:00:00 2.4 4 Norte 10 Norte 0 -- -- 91
2020-01-22 21:00:00 3.6 4 Nordeste 14 Este 0 -- -- 88
2020-01-22 20:00:00 4 3 Nordeste 13 Nordeste 0 -- -- 84
2020-01-22 19:00:00 6.1 5 Nordeste 16 Nordeste 0 -- -- 79
2020-01-22 18:00:00 7.5 6 Este 20 Este 0 -- -- 75
2020-01-22 17:00:00 8.8 5 Este 18 Este 0 -- -- 70
2020-01-22 16:00:00 9.8 6 Nordeste 21 Este 0 -- -- 67
2020-01-22 15:00:00 8.7 6 Nordeste 26 Este 0 -- -- 70
2020-01-22 14:00:00 8.6 9 Este 26 Nordeste 0 -- -- 72
2020-01-22 13:00:00 8.2 9 Este 24 Este 0 -- -- 75
2020-01-22 12:00:00 6.3 9 Este 22 Nordeste 0 -- -- 81
2020-01-22 11:00:00 4.7 9 Este 20 Este 0 -- -- 87
2020-01-22 10:00:00 4 7 Este 14 Este 0 -- -- 89
2020-01-22 09:00:00 3.9 6 Sudeste 21 Este 0 -- -- 90
2020-01-22 08:00:00 3.9 12 Este 30 Este 0 -- -- 90
2020-01-22 07:00:00 3.7 13 Este 24 Nordeste 0 -- -- 91
2020-01-22 06:00:00 3.9 11 Nordeste 29 Este 0 -- -- 91
2020-01-22 05:00:00 4.2 16 Nordeste 33 Este 0 -- -- 90
2020-01-22 04:00:00 4.2 16 Nordeste 32 Nordeste 0 -- -- 88
2020-01-22 03:00:00 3.9 17 Nordeste 32 Norte 0 -- -- 89
2020-01-22 02:00:00 3.6 16 Nordeste 35 Nordeste 0 -- -- 90
2020-01-22 01:00:00 3.7 20 Nordeste 39 Nordeste 0 -- -- 88
2020-01-22 00:00:00 3.4 18 Nordeste 37 Nordeste 0 -- -- 89
2020-01-21 23:00:00 2.8 14 Nordeste 42 Nordeste 0 -- -- 89
2020-01-21 22:00:00 2.7 15 Nordeste 35 Nordeste 0 -- -- 88
2020-01-21 21:00:00 2.7 18 Nordeste 41 Nordeste 0 -- -- 90
2020-01-21 20:00:00 2.7 13 Nordeste 39 Nordeste 0 -- -- 89
2020-01-21 19:00:00 2.5 12 Nordeste 39 Este 0 -- -- 89
2020-01-21 18:00:00 2.7 12 Nordeste 39 Nordeste 0.2 -- -- 90
2020-01-21 17:00:00 2.8 20 Nordeste 53 Nordeste 0 -- -- 89
2020-01-21 16:00:00 3.9 19 Nordeste 46 Nordeste 0 -- -- 82
2020-01-21 15:00:00 4.1 17 Nordeste 45 Nordeste 0 -- -- 79
2020-01-21 14:00:00 4.1 17 Nordeste 40 Este 0 -- -- 77
2020-01-21 13:00:00 4 19 Nordeste 42 Nordeste 0 -- -- 76
2020-01-21 12:00:00 3.4 17 Nordeste 36 Nordeste 0 -- -- 79
2020-01-21 11:00:00 2.4 18 Nordeste 46 Nordeste 0 -- -- 83
2020-01-21 10:00:00 2.1 21 Nordeste 44 Este 0 -- -- 78
2020-01-21 09:00:00 1.6 17 Nordeste 47 Nordeste 0 -- -- 77
2020-01-21 08:00:00 1.6 18 Nordeste 45 Nordeste 0 -- -- 73
2020-01-21 07:00:00 1.3 18 Nordeste 42 Nordeste 0 -- -- 76
2020-01-21 06:00:00 1.2 19 Nordeste 44 Nordeste 0 -- -- 78
2020-01-21 05:00:00 1.1 18 Nordeste 41 Este 0 -- -- 77
2020-01-21 04:00:00 1.2 19 Nordeste 38 Este 0 -- -- 77
2020-01-21 03:00:00 1.3 17 Nordeste 35 Este 0 -- -- 77
2020-01-21 02:00:00 1.1 15 Nordeste 39 Nordeste 0 -- -- 77
2020-01-21 01:00:00 1.2 17 Nordeste 46 Nordeste 0 -- -- 80
2020-01-21 00:00:00 1 23 Nordeste 42 Nordeste 0 -- -- 77
2020-01-20 23:00:00 0.8 28 Nordeste 48 Nordeste 0 -- -- 77
2020-01-20 22:00:00 0.8 18 Este 41 Este 0 -- -- 76
2020-01-20 21:00:00 0.7 18 Nordeste 36 Nordeste 0 -- -- 73
2020-01-20 20:00:00 1 14 Nordeste 31 Nordeste 0 -- -- 71
2020-01-20 19:00:00 1.3 15 Nordeste 35 Nordeste 0 -- -- 71
2020-01-20 18:00:00 1.8 15 Nordeste 42 Nordeste 0 -- -- 68
2020-01-20 17:00:00 2.2 18 Nordeste 41 Este 0 -- -- 66
2020-01-20 16:00:00 2.6 26 Nordeste 49 Nordeste 0 -- -- 62
2020-01-20 15:00:00 2.7 28 Nordeste 49 Este 0 -- -- 60
2020-01-20 14:00:00 2.4 23 Nordeste 44 Nordeste 0 -- -- 60
2020-01-20 13:00:00 2.7 25 Nordeste 62 Nordeste 0 -- -- 58
2020-01-20 12:00:00 2.1 30 Nordeste 67 Nordeste 0 -- -- 56
2020-01-20 11:00:00 1.9 25 Nordeste 53 Este 0 -- -- 58
2020-01-20 10:00:00 1 22 Nordeste 43 Nordeste 0 -- -- 63
2020-01-20 09:00:00 0 20 Nordeste 48 Este 0 -- -- 70
2020-01-20 08:00:00 0.1 18 Nordeste 44 Nordeste 0 -- -- 74
2020-01-20 07:00:00 0.1 18 Nordeste 44 Nordeste 0 -- -- 73
2020-01-20 06:00:00 0.3 14 Nordeste 49 Este 0 -- -- 76
2020-01-20 05:00:00 0.6 21 Nordeste 54 Nordeste 0 -- -- 74
2020-01-20 04:00:00 0.7 18 Nordeste 43 Norte 0 -- -- 72
2020-01-20 03:00:00 0.7 12 Nordeste 35 Nordeste 0 -- -- 72
2020-01-20 02:00:00 0.9 14 Nordeste 34 Nordeste 0 -- -- 69
2020-01-20 01:00:00 1.3 18 Nordeste 42 Nordeste 0 -- -- 67
2020-01-20 00:00:00 1.3 18 Nordeste 48 Nordeste 0 -- -- 73
2020-01-19 23:00:00 1.6 21 Nordeste 46 Nordeste 0 -- -- 70
2020-01-19 22:00:00 1.9 19 Nordeste 46 Nordeste 0 -- -- 69
2020-01-19 21:00:00 1.8 17 Nordeste 44 Nordeste 0 -- -- 70
2020-01-19 20:00:00 2 21 Nordeste 52 Nordeste 0 -- -- 68
2020-01-19 19:00:00 2.3 18 Nordeste 49 Nordeste 0 -- -- 65
2020-01-19 18:00:00 3.3 18 Nordeste 49 Nordeste 0 -- -- 60
2020-01-19 17:00:00 4.5 17 Nordeste 48 Norte 0 -- -- 59
2020-01-19 16:00:00 5.6 16 Nordeste 55 Norte 0 -- -- 55
2020-01-19 15:00:00 6.2 18 Nordeste 49 Nordeste 0 -- -- 57
2020-01-19 14:00:00 6.5 19 Norte 50 Nordeste 0 -- -- 61
2020-01-19 13:00:00 6.3 18 Nordeste 48 Norte 0 -- -- 60
2020-01-19 12:00:00 5.8 17 Nordeste 54 Nordeste 0 -- -- 66
2020-01-19 11:00:00 5.1 17 Norte 48 Norte 0 -- -- 68
2020-01-19 10:00:00 4.8 11 Nordeste 30 Norte 0 -- -- 82
2020-01-19 09:00:00 3.9 8 Norte 26 Norte 0 -- -- 89
2020-01-19 08:00:00 3.7 9 Norte 23 Norte 0 -- -- 92
2020-01-19 07:00:00 2 8 Norte 17 Noroeste 0 -- -- 97
2020-01-19 06:00:00 1.7 5 Noroeste 16 Noroeste 0 -- -- 98
2020-01-19 05:00:00 1.3 6 Noroeste 11 Noroeste 0 -- -- 98
2020-01-19 04:00:00 0.4 2 Norte 6 Noroeste 0 -- -- 96
2020-01-19 03:00:00 1.2 0 Calma 4 Norte 0 -- -- 94
2020-01-19 02:00:00 1.6 2 Norte 3 Noroeste 0 -- -- 94
2020-01-19 01:00:00 2.9 0 Calma 17 Noroeste 0 -- -- 89
2020-01-19 00:00:00 3.8 6 Noroeste 15 Noroeste 0 -- -- 90
2020-01-18 23:00:00 3.2 0 Calma 15 Noroeste 0 -- -- 88
2020-01-18 22:00:00 4.2 7 Noroeste 21 Noroeste 0 -- -- 85
2020-01-18 21:00:00 5.1 15 Noroeste 34 Oeste 0 -- -- 82
2020-01-18 20:00:00 6.7 21 Oeste 42 Noroeste 0 -- -- 79
2020-01-18 19:00:00 7.4 23 Oeste 53 Noroeste 1 -- -- 89
2020-01-18 18:00:00 10.6 24 Oeste 46 Sudoeste 0 -- -- 85
2020-01-18 17:00:00 11.3 22 Oeste 43 Oeste 0 -- -- 83
2020-01-18 16:00:00 10.9 16 Sudoeste 31 Sur 0 -- -- 91
2020-01-18 15:00:00 9.9 13 Sur 27 Sur 0 -- -- 92
2020-01-18 14:00:00 9.7 14 Sur 33 Sur 0 -- -- 89
2020-01-18 13:00:00 8.6 10 Sur 27 Sur 0 -- -- 90
2020-01-18 12:00:00 7.2 12 Sur 24 Sur 0 -- -- 90
2020-01-18 11:00:00 5.3 4 Sudeste 11 Sudeste 0 -- -- 92
2020-01-18 10:00:00 4.4 7 Sudeste 11 Sudeste 0 -- -- 92
2020-01-18 09:00:00 3.7 3 Este 10 Sudeste 0 -- -- 92
2020-01-18 08:00:00 3.3 6 Sudeste 14 Sudeste 0 -- -- 91
2020-01-18 07:00:00 3.1 10 Sudeste 18 Sudeste 0 -- -- 91
2020-01-18 06:00:00 2.7 6 Sudeste 18 Sudeste 0 -- -- 91
2020-01-18 05:00:00 2.6 13 Sudeste 20 Sudeste 0 -- -- 91
2020-01-18 04:00:00 2.6 5 Sudeste 10 Sudeste 0 -- -- 91
2020-01-18 03:00:00 2.2 3 Sudeste 8 Sudeste 0 -- -- 92
2020-01-18 02:00:00 1.6 3 Sudeste 5 Sudeste 0 -- -- 92
2020-01-18 01:00:00 1.5 0 Calma 10 Este 0 -- -- 89
2020-01-18 00:00:00 2.1 4 Sudoeste 10 Sudoeste 0 -- -- 88
2020-01-17 23:00:00 2.7 5 Sudoeste 9 Sudoeste 0 -- -- 85
2020-01-17 22:00:00 3.4 6 Sudeste 17 Oeste 0 -- -- 82
2020-01-17 21:00:00 3.8 8 Sudoeste 14 Sudoeste 0 -- -- 81
2020-01-17 20:00:00 4.2 4 Oeste 13 Oeste 0 -- -- 80
2020-01-17 19:00:00 5 9 Oeste 12 Oeste 0 -- -- 78
2020-01-17 18:00:00 6.8 8 Oeste 14 Oeste 0 -- -- 71
2020-01-17 17:00:00 8.2 12 Oeste 26 Sudoeste 0 -- -- 66
2020-01-17 16:00:00 8.8 17 Oeste 29 Oeste 0 -- -- 65
2020-01-17 15:00:00 9.2 15 Oeste 28 Noroeste 0 -- -- 66
2020-01-17 14:00:00 9.4 16 Oeste 31 Oeste 0 -- -- 65
2020-01-17 13:00:00 9.1 21 Oeste 39 Oeste 0 -- -- 71
2020-01-17 12:00:00 8.3 25 Oeste 41 Oeste 0 -- -- 74
2020-01-17 11:00:00 7.5 22 Oeste 37 Oeste 0 -- -- 82
2020-01-17 10:00:00 6.4 24 Oeste 38 Oeste 0 -- -- 86
2020-01-17 09:00:00 5.9 14 Oeste 27 Oeste 0 -- -- 91
2020-01-17 08:00:00 6.4 15 Sudoeste 34 Sudoeste 0 -- -- 90
2020-01-17 07:00:00 6.9 19 Sudoeste 33 Sudoeste 0 -- -- 90
2020-01-17 06:00:00 7 12 Sudoeste 28 Sudoeste 0 -- -- 91
2020-01-17 05:00:00 6.7 13 Sudoeste 23 Sudoeste 0 -- -- 91
2020-01-17 04:00:00 6.6 14 Sudoeste 25 Sudoeste 0 -- -- 92
2020-01-17 03:00:00 6.2 13 Sudoeste 27 Sudoeste 0 -- -- 94
2020-01-17 02:00:00 6.7 9 Sudoeste 23 Sudoeste 0 -- -- 92
2020-01-17 01:00:00 6.9 11 Sudoeste 31 Sur 0 -- -- 91
2020-01-17 00:00:00 7.6 16 Sudoeste 37 Sudoeste 0.2 -- -- 90
2020-01-16 23:00:00 7.8 13 Sudoeste 24 Sur 0 -- -- 83
2020-01-16 22:00:00 8.2 11 Sur 33 Sur 0 -- -- 77
2020-01-16 21:00:00 8.5 17 Sudoeste 38 Sudoeste 0.2 -- -- 77
2020-01-16 20:00:00 9.2 11 Sur 22 Sudoeste 0 -- -- 72
2020-01-16 19:00:00 9.3 15 Sudoeste 31 Sudoeste 0 -- -- 67
2020-01-16 18:00:00 9.6 14 Sur 34 Sudoeste 0 -- -- 61
2020-01-16 17:00:00 11.2 21 Sudoeste 48 Sudoeste 0 -- -- 50
2020-01-16 16:00:00 13 24 Sudoeste 44 Sudoeste 0 -- -- 50
2020-01-16 15:00:00 13.2 21 Sudoeste 42 Sudoeste 0 -- -- 59
2020-01-16 14:00:00 13.4 22 Sudoeste 46 Sudoeste 0 -- -- 60
2020-01-16 13:00:00 12.8 20 Sudoeste 43 Sudoeste 0 -- -- 68
2020-01-16 12:00:00 11.3 21 Sudoeste 39 Sur 0 -- -- 79
2020-01-16 11:00:00 9.5 13 Sur 26 Sur 0 -- -- 88
2020-01-16 10:00:00 8.4 9 Sur 23 Sur 0 -- -- 91
2020-01-16 09:00:00 7.5 9 Sur 20 Sur 0 -- -- 92
2020-01-16 08:00:00 7.7 10 Sudoeste 23 Sudoeste 0 -- -- 90
2020-01-16 07:00:00 8.1 14 Sudoeste 34 Sudoeste 0 -- -- 91
2020-01-16 06:00:00 7.1 10 Sudoeste 23 Sur 0 -- -- 94
2020-01-16 05:00:00 6.1 6 Sur 14 Sur 0 -- -- 92
2020-01-16 04:00:00 7.5 5 Sudeste 17 Sudoeste 0 -- -- 88
2020-01-16 03:00:00 8 9 Sur 22 Sudoeste 0 -- -- 90
2020-01-16 02:00:00 7.6 4 Sur 12 Sur 0 -- -- 93
2020-01-16 01:00:00 8.1 5 Sur 14 Sudoeste 0 -- -- 95
2020-01-16 00:00:00 8.1 10 Sudoeste 16 Sur 0 -- -- 94
2020-01-15 23:00:00 7.8 7 Sur 14 Sudoeste 0 -- -- 95
2020-01-15 22:00:00 7.7 10 Sudoeste 19 Sudoeste 0 -- -- 94
2020-01-15 21:00:00 7.6 6 Sudoeste 12 Sudoeste 0 -- -- 94
2020-01-15 20:00:00 8 7 Sudoeste 15 Sudoeste 0 -- -- 92
2020-01-15 19:00:00 7.6 3 Sur 10 Sur 0 -- -- 90
2020-01-15 18:00:00 9 3 Sur 17 Sudoeste 0 -- -- 85
2020-01-15 17:00:00 10.3 11 Sudoeste 22 Sur 0 -- -- 81
2020-01-15 16:00:00 10.1 12 Sur 31 Sur 0 -- -- 81
2020-01-15 15:00:00 11.3 18 Sudoeste 32 Sudoeste 0 -- -- 73
2020-01-15 14:00:00 9.9 15 Sudoeste 33 Sudoeste 0 -- -- 79
2020-01-15 13:00:00 8.7 19 Sur 36 Sur 0 -- -- 87
2020-01-15 12:00:00 8.2 18 Sudoeste 35 Sudoeste 0 -- -- 87
2020-01-15 11:00:00 7.7 21 Sudoeste 39 Sudoeste 0 -- -- 90
2020-01-15 10:00:00 6.9 13 Sur 30 Sudoeste 0 -- -- 84
2020-01-15 09:00:00 6.5 14 Sur 32 Sudoeste 0 -- -- 86
2020-01-15 08:00:00 6.8 14 Sur 34 Sur 0 -- -- 85
2020-01-15 07:00:00 6.7 13 Sur 33 Sur 0 -- -- 86
2020-01-15 06:00:00 6.6 15 Sur 35 Sudoeste 0 -- -- 86
2020-01-15 05:00:00 6.3 16 Sur 33 Sur 0 -- -- 90
2020-01-15 04:00:00 5.9 13 Sur 24 Sur 0 -- -- 91
2020-01-15 03:00:00 5.6 12 Sur 29 Sur 0 -- -- 91
2020-01-15 02:00:00 5.6 11 Sur 30 Sudoeste 0 -- -- 91
2020-01-15 01:00:00 6 13 Sur 28 Sur 0 -- -- 93
2020-01-15 00:00:00 5.9 9 Sur 27 Sur 0 -- -- 93
2020-01-14 23:00:00 6.4 14 Sudoeste 30 Sudoeste 0 -- -- 90
2020-01-14 22:00:00 5.6 14 Sudoeste 24 Sudoeste 0 -- -- 90
2020-01-14 21:00:00 5 10 Sudoeste 17 Sudoeste 0 -- -- 89
2020-01-14 20:00:00 5.7 9 Sudoeste 27 Sudoeste 0 -- -- 86
2020-01-14 19:00:00 6.7 5 Sur 15 Sur 0 -- -- 81
2020-01-14 18:00:00 8 6 Sur 20 Sudoeste 0 -- -- 80
2020-01-14 17:00:00 8.8 9 Sudoeste 22 Sudoeste 0 -- -- 73
2020-01-14 16:00:00 8.6 11 Sudoeste 23 Sudoeste 0 -- -- 78
2020-01-14 15:00:00 8.6 11 Sur 27 Sur 0 -- -- 77
2020-01-14 14:00:00 8 10 Sur 24 Sudoeste 0 -- -- 79
2020-01-14 13:00:00 6.3 8 Sur 25 Sudoeste 0 -- -- 84
2020-01-14 12:00:00 4.7 13 Sudoeste 30 Sur 0 -- -- 86
2020-01-14 11:00:00 3.9 13 Sur 33 Sudoeste 0 -- -- 87
2020-01-14 10:00:00 2.8 15 Sudoeste 31 Sudoeste 0 -- -- 92
2020-01-14 09:00:00 1.5 16 Sudoeste 27 Sudoeste 0 -- -- 93
2020-01-14 08:00:00 2 10 Sur 21 Sudoeste 0 -- -- 94
2020-01-14 07:00:00 1.7 12 Sudoeste 21 Sudoeste 0 -- -- 94
2020-01-14 06:00:00 1.5 11 Sur 22 Sudoeste 0 -- -- 96
2020-01-14 05:00:00 1.9 9 Sudeste 20 Sudoeste 0 -- -- 98
2020-01-14 04:00:00 2 10 Sur 21 Sudoeste 0 -- -- 100
2020-01-14 03:00:00 1 10 Sur 17 Sur 0 -- -- 100
2020-01-14 02:00:00 -0.2 8 Sudeste 14 Sudeste 0 -- -- 100
2020-01-14 01:00:00 -0.6 3 Nordeste 14 Sur 0 -- -- 100
2020-01-14 00:00:00 -1.2 8 Sudeste 14 Sur 0 -- -- 100
2020-01-13 23:00:00 -1.4 5 Sudeste 11 Sur 0 -- -- 100
2020-01-13 22:00:00 -0.8 3 Sur 8 Sudoeste 0 -- -- 100
2020-01-13 21:00:00 -0.5 3 Sur 5 Noroeste 0 -- -- 99
2020-01-13 20:00:00 -0.8 5 Oeste 7 Oeste 0 -- -- 97
2020-01-13 19:00:00 0.9 4 Sur 10 Sudeste 0 -- -- 97
2020-01-13 18:00:00 1.4 5 Sudeste 13 Sur 0 -- -- 96
2020-01-13 17:00:00 1.9 2 Sudoeste 9 Norte 0 -- -- 95
2020-01-13 16:00:00 1.9 4 Norte 10 Norte 0 -- -- 96
2020-01-13 15:00:00 1.7 4 Nordeste 13 Sur 0 -- -- 97
2020-01-13 14:00:00 0.9 4 Sur 15 Sudeste 0 -- -- 99
2020-01-13 13:00:00 -0.1 3 Sudoeste 12 Oeste 0 -- -- 100
2020-01-13 12:00:00 -1.2 3 Sudoeste 10 Sudeste 0 -- -- 100
2020-01-13 11:00:00 -1.9 5 Sudeste 17 Sudeste 0 -- -- 100
2020-01-13 10:00:00 -2.5 2 Sudoeste 7 Oeste 0 -- -- 100
2020-01-13 09:00:00 -2.8 5 Noroeste 12 Noroeste 0 -- -- 100
2020-01-13 08:00:00 -2.7 4 Sur 12 Sur 0 -- -- 100
2020-01-13 07:00:00 -2.5 3 Sudoeste 10 Sudeste 0 -- -- 100
2020-01-13 06:00:00 -2.4 4 Sur 12 Sudeste 0 -- -- 100
2020-01-13 05:00:00 -2.3 5 Sudeste 12 Sur 0 -- -- 100
2020-01-13 04:00:00 -1.7 4 Sur 9 Sudeste 0 -- -- 100
2020-01-13 03:00:00 -1.7 0 Calma 4 Nordeste 0 -- -- 100
2020-01-13 02:00:00 -1.7 0 Calma 5 Sur 0 -- -- 100
2020-01-13 01:00:00 -1.6 3 Este 6 Noroeste 0 -- -- 100
2020-01-13 00:00:00 -1.4 3 Noroeste 7 Oeste 0 -- -- 100
2020-01-12 23:00:00 -1.2 3 Noroeste 10 Oeste 0 -- -- 100
2020-01-12 22:00:00 -1.3 4 Oeste 12 Oeste 0 -- -- 100
2020-01-12 21:00:00 -0.9 6 Oeste 9 Noroeste 0 -- -- 99
2020-01-12 20:00:00 -0.1 5 Noroeste 10 Noroeste 0 -- -- 99
2020-01-12 19:00:00 0.5 2 Nordeste 7 Norte 0 -- -- 99
2020-01-12 18:00:00 0.8 3 Norte 12 Norte 0 -- -- 99
2020-01-12 17:00:00 0.9 7 Norte 15 Noroeste 0 -- -- 99
2020-01-12 16:00:00 0.7 9 Noroeste 14 Noroeste 0 -- -- 98
2020-01-12 15:00:00 0.3 2 Norte 11 Noroeste 0 -- -- 98
2020-01-12 14:00:00 -0.4 5 Noroeste 10 Noroeste 0 -- -- 97
2020-01-12 13:00:00 -1.5 3 Oeste 5 Noroeste 0 -- -- 99
2020-01-12 12:00:00 -3 2 Oeste 6 Oeste 0 -- -- 100
2020-01-12 11:00:00 -3.9 0 Calma 8 Noroeste 0 -- -- 99
2020-01-12 10:00:00 -4.3 3 Norte 5 Noroeste 0 -- -- 99
2020-01-12 09:00:00 -4.5 0 Calma 10 Sudeste 0 -- -- 98
2020-01-12 08:00:00 -4.1 8 Sudeste 11 Sudeste 0 -- -- 98
2020-01-12 07:00:00 -3.9 3 Sur 9 Sudoeste 0 -- -- 99
2020-01-12 06:00:00 -3.6 4 Sur 10 Sudeste 0 -- -- 99
2020-01-12 05:00:00 -3.1 3 Sudeste 8 Sur 0 -- -- 99
2020-01-12 04:00:00 -2.8 5 Sudeste 9 Sudeste 0 -- -- 99
2020-01-12 03:00:00 -2.7 5 Sur 10 Sur 0 -- -- 98
2020-01-12 02:00:00 -2.5 4 Sudoeste 9 Sudoeste 0 -- -- 99
2020-01-12 01:00:00 -2.5 3 Sur 8 Sudeste 0 -- -- 99
2020-01-12 00:00:00 -2.7 3 Sur 6 Sur 0 -- -- 98
2020-01-11 23:00:00 -2.7 3 Sur 12 Sudeste 0 -- -- 98
2020-01-11 22:00:00 -1.8 7 Sudeste 12 Sudeste 0 -- -- 98
2020-01-11 21:00:00 -1.5 6 Sudeste 14 Sudeste 0 -- -- 98
2020-01-11 20:00:00 -0.8 9 Sudeste 16 Sudeste 0 -- -- 97
2020-01-11 19:00:00 0.2 9 Sudeste 14 Sudeste 0 -- -- 96
2020-01-11 18:00:00 1.5 5 Sur 17 Sudeste 0 -- -- 92
2020-01-11 17:00:00 3.3 12 Sudeste 17 Sudeste 0 -- -- 88
2020-01-11 16:00:00 5.2 10 Sudeste 18 Sudeste 0 -- -- 83
2020-01-11 15:00:00 4.7 12 Sudeste 19 Sudeste 0 -- -- 84
2020-01-11 14:00:00 5 9 Sudeste 17 Sudeste 0 -- -- 83
2020-01-11 13:00:00 4.5 5 Sudeste 10 Sudeste 0 -- -- 87
2020-01-11 12:00:00 2.4 2 Sudoeste 6 Noroeste 0 -- -- 92
2020-01-11 11:00:00 0.2 5 Noroeste 9 Norte 0 -- -- 98
2020-01-11 10:00:00 -2 0 Calma 5 Sudeste 0 -- -- 99
2020-01-11 09:00:00 -4 0 Calma 2 Este 0 -- -- 97
2020-01-11 08:00:00 -3.7 0 Calma 4 Sudeste 0 -- -- 96
2020-01-11 07:00:00 -2.9 2 Este 5 Noroeste 0 -- -- 96
2020-01-11 06:00:00 -2 3 Noroeste 9 Noroeste 0 -- -- 96
2020-01-11 05:00:00 -1.8 0 Calma 8 Noroeste 0 -- -- 94
2020-01-11 04:00:00 -0.9 4 Noroeste 8 Noroeste 0 -- -- 95
2020-01-11 03:00:00 0 2 Noroeste 11 Norte 0 -- -- 93
2020-01-11 02:00:00 1.1 2 Sudoeste 9 Noroeste 0 -- -- 94
2020-01-11 01:00:00 1.3 3 Sur 14 Norte 0 -- -- 92
2020-01-11 00:00:00 1.3 5 Noroeste 11 Noroeste 0 -- -- 94
2020-01-10 23:00:00 1.3 8 Noroeste 12 Noroeste 0 -- -- 93
2020-01-10 22:00:00 1.8 3 Norte 8 Norte 0 -- -- 92
2020-01-10 21:00:00 2 3 Norte 9 Oeste 0 -- -- 90
2020-01-10 20:00:00 3 3 Norte 7 Oeste 0 -- -- 85
2020-01-10 19:00:00 5.3 2 Norte 6 Norte 0 -- -- 79
2020-01-10 18:00:00 6.8 3 Norte 9 Noroeste 0 -- -- 77
2020-01-10 17:00:00 7 3 Noroeste 10 Norte 0 -- -- 75
2020-01-10 16:00:00 7.8 4 Nordeste 12 Nordeste 0 -- -- 67
2020-01-10 15:00:00 8.3 4 Nordeste 14 Nordeste 0 -- -- 69
2020-01-10 14:00:00 7.5 3 Noroeste 8 Sudoeste 0 -- -- 74
2020-01-10 13:00:00 5.7 3 Norte 12 Norte 0 -- -- 81
2020-01-10 12:00:00 3.9 8 Norte 13 Noroeste 0 -- -- 89
2020-01-10 11:00:00 1.6 3 Norte 5 Norte 0 -- -- 96
2020-01-10 10:00:00 -1.2 0 Calma 5 Sudoeste 0 -- -- 99
2020-01-10 09:00:00 -2.6 6 Sudoeste 9 Sudoeste 0 -- -- 97
2020-01-10 08:00:00 -2 2 Sudoeste 8 Sudoeste 0 -- -- 96
2020-01-10 07:00:00 -1.6 3 Sudeste 10 Oeste 0 -- -- 94
2020-01-10 06:00:00 -0.9 0 Calma 9 Oeste 0 -- -- 94
2020-01-10 05:00:00 0 3 Sur 11 Noroeste 0 -- -- 91
2020-01-10 04:00:00 1.2 2 Este 20 Oeste 0 -- -- 86
2020-01-10 03:00:00 1.6 5 Noroeste 16 Oeste 0 -- -- 89
2020-01-10 02:00:00 1.9 11 Noroeste 30 Oeste 0 -- -- 89
2020-01-10 01:00:00 2.9 18 Oeste 35 Oeste 0 -- -- 86
2020-01-10 00:00:00 3.8 20 Oeste 46 Oeste 0 -- -- 82
2020-01-09 23:00:00 4.8 23 Oeste 44 Oeste 0 -- -- 79
2020-01-09 22:00:00 5.8 20 Oeste 35 Oeste 0 -- -- 83
2020-01-09 21:00:00 7.1 18 Oeste 27 Oeste 0 -- -- 92
2020-01-09 20:00:00 8.3 17 Oeste 37 Oeste 0 -- -- 94
2020-01-09 19:00:00 9 19 Oeste 32 Oeste 0 -- -- 94
2020-01-09 18:00:00 9.7 18 Oeste 32 Oeste 0 -- -- 91
2020-01-09 17:00:00 8.7 12 Sudoeste 23 Sudoeste 0 -- -- 94
2020-01-09 16:00:00 8 8 Sur 22 Sudeste 0 -- -- 92
2020-01-09 15:00:00 7.8 10 Sur 24 Sudoeste 0 -- -- 94
2020-01-09 14:00:00 6.2 9 Sur 22 Sudoeste 0 -- -- 99
2020-01-09 13:00:00 4.7 5 Sur 16 Sudoeste 0 -- -- 100
2020-01-09 12:00:00 3.1 8 Sudeste 14 Sudeste 0 -- -- 100
2020-01-09 11:00:00 0.9 7 Sudeste 11 Sudeste 0 -- -- 100
2020-01-09 10:00:00 -0.7 6 Sudeste 13 Sudeste 0 -- -- 100
2020-01-09 09:00:00 -1.1 7 Sudeste 12 Sudeste 0 -- -- 100
2020-01-09 08:00:00 -0.9 5 Sudeste 10 Sudeste 0 -- -- 100
2020-01-09 07:00:00 -0.7 6 Sudeste 9 Sudeste 0 -- -- 100
2020-01-09 06:00:00 -0.9 6 Sudeste 12 Sur 0 -- -- 100
2020-01-09 05:00:00 -0.9 4 Sudeste 8 Sudeste 0 -- -- 99
2020-01-09 04:00:00 -0.9 3 Sudeste 6 Sur 0 -- -- 98
2020-01-09 03:00:00 -0.5 3 Sudeste 8 Sudeste 0 -- -- 99
2020-01-09 02:00:00 -0.2 0 Calma 5 Sudeste 0 -- -- 99
2020-01-09 01:00:00 -0.1 3 Sudeste 5 Sudeste 0 -- -- 98
2020-01-09 00:00:00 0.1 0 Calma 3 Sudoeste 0 -- -- 97
2020-01-08 23:00:00 0.5 0 Calma 2 Norte 0 -- -- 97
2020-01-08 22:00:00 1.2 3 Oeste 6 Sudoeste 0 -- -- 96
2020-01-08 21:00:00 2 4 Sudoeste 7 Oeste 0 -- -- 95
2020-01-08 20:00:00 2.7 2 Sudoeste 6 Oeste 0 -- -- 93
2020-01-08 19:00:00 4.1 2 Sudoeste 5 Sudeste 0 -- -- 90
2020-01-08 18:00:00 6.2 0 Calma 12 Norte 0 -- -- 87
2020-01-08 17:00:00 7.5 8 Norte 14 Noroeste 0 -- -- 82
2020-01-08 16:00:00 8.2 7 Norte 13 Norte 0 -- -- 80
2020-01-08 15:00:00 6.3 5 Norte 11 Norte 0 -- -- 86
2020-01-08 14:00:00 4.5 6 Norte 13 Norte 0 -- -- 93
2020-01-08 13:00:00 2.4 5 Norte 12 Norte 0 -- -- 100
2020-01-08 12:00:00 0.2 5 Norte 10 Norte 0 -- -- 100
2020-01-08 11:00:00 -1.4 0 Calma 7 Sudeste 0 -- -- 100
2020-01-08 10:00:00 -2.1 3 Sur 6 Sur 0 -- -- 100
2020-01-08 09:00:00 -2.6 0 Calma 9 Noroeste 0 -- -- 100
2020-01-08 08:00:00 -2.6 5 Noroeste 10 Noroeste 0 -- -- 100
2020-01-08 07:00:00 -2.5 5 Noroeste 9 Noroeste 0 -- -- 100
2020-01-08 06:00:00 -2.2 0 Calma 6 Norte 0 -- -- 100
2020-01-08 05:00:00 -2.2 3 Norte 7 Norte 0 -- -- 100
2020-01-08 04:00:00 -1.9 3 Norte 8 Noroeste 0 -- -- 100
2020-01-08 03:00:00 -1.8 0 Calma 9 Sudeste 0 -- -- 100
2020-01-08 02:00:00 -1.4 4 Sudeste 8 Sudeste 0 -- -- 100
2020-01-08 01:00:00 -1.2 2 Este 5 Este 0 -- -- 100
2020-01-08 00:00:00 -0.9 2 Nordeste 6 Sudeste 0 -- -- 100
2020-01-07 23:00:00 -0.5 3 Nordeste 5 Norte 0 -- -- 100
2020-01-07 22:00:00 -0.6 3 Sudoeste 8 Norte 0 -- -- 100
2020-01-07 21:00:00 -0.4 0 Calma 7 Noroeste 0 -- -- 100
2020-01-07 20:00:00 0.1 3 Sudoeste 6 Norte 0 -- -- 100
2020-01-07 19:00:00 0.3 3 Noroeste 8 Oeste 0 -- -- 100
2020-01-07 18:00:00 0.8 3 Norte 8 Noroeste 0 -- -- 100
2020-01-07 17:00:00 1.2 4 Norte 8 Norte 0 -- -- 100
2020-01-07 16:00:00 1.1 4 Norte 6 Norte 0 -- -- 100
2020-01-07 15:00:00 0.9 3 Este 9 Sudeste 0 -- -- 100
2020-01-07 14:00:00 -0.1 0 Calma 8 Noroeste 0 -- -- 100
2020-01-07 13:00:00 -0.9 2 Nordeste 10 Sudeste 0 -- -- 100
2020-01-07 12:00:00 -1.4 6 Sudeste 10 Sudeste 0 -- -- 100
2020-01-07 11:00:00 -2.3 3 Norte 11 Sudeste 0 -- -- 100
2020-01-07 10:00:00 -2.2 7 Sudeste 12 Sudeste 0 -- -- 100
2020-01-07 09:00:00 -1.8 6 Sudeste 9 Sudeste 0 -- -- 100
2020-01-07 08:00:00 -1.9 3 Oeste 8 Norte 0 -- -- 100
2020-01-07 07:00:00 -1.8 2 Este 6 Sudeste 0 -- -- 100
2020-01-07 06:00:00 -1.8 0 Calma 6 Sudeste 0 -- -- 100
2020-01-07 05:00:00 -1.7 2 Norte 7 Noroeste 0 -- -- 100
2020-01-07 04:00:00 -1.9 2 Noroeste 10 Noroeste 0 -- -- 100
2020-01-07 03:00:00 -1.5 3 Norte 6 Oeste 0 -- -- 100
2020-01-07 02:00:00 -1.1 4 Noroeste 8 Noroeste 0 -- -- 100
2020-01-07 01:00:00 -0.9 3 Norte 6 Norte 0 -- -- 100
2020-01-07 00:00:00 -0.8 0 Calma 9 Sudeste 0 -- -- 100
2020-01-06 23:00:00 -0.7 2 Sur 6 Sudeste 0 -- -- 100
2020-01-06 22:00:00 -0.8 3 Norte 7 Noroeste 0 -- -- 100
2020-01-06 21:00:00 -0.8 2 Sudeste 8 Sudeste 0 -- -- 100
2020-01-06 20:00:00 -0.8 3 Nordeste 10 Nordeste 0 -- -- 100
2020-01-06 19:00:00 -0.5 6 Noroeste 13 Noroeste 0 -- -- 100
2020-01-06 18:00:00 -0.1 3 Nordeste 10 Norte 0 -- -- 100
2020-01-06 17:00:00 0.1 3 Nordeste 7 Norte 0 -- -- 100
2020-01-06 16:00:00 0 4 Noroeste 8 Sudeste 0 -- -- 100
2020-01-06 15:00:00 -0.4 2 Nordeste 10 Sudeste 0 -- -- 100
2020-01-06 14:00:00 -1 3 Este 7 Norte 0 -- -- 100
2020-01-06 13:00:00 -1.5 2 Nordeste 12 Sudeste 0 -- -- 100
2020-01-06 12:00:00 -1.7 7 Sudeste 11 Sudeste 0 -- -- 100
2020-01-06 11:00:00 -2.2 3 Sudeste 11 Norte 0 -- -- 100
2020-01-06 10:00:00 -2.7 0 Calma 10 Sudeste 0 -- -- 100